sensor_id;sensor_type;location;lat;lon;timestamp;pressure;altitude;pressure_sealevel;temperature;humidity
69219;BME280;56232;53.384;-2.732;2022-10-15T00:00:36;99846.20;;;11.02;41.82
69219;BME280;56232;53.384;-2.732;2022-10-15T00:03:02;99846.22;;;10.64;41.87
69219;BME280;56232;53.384;-2.732;2022-10-15T00:05:27;99844.91;;;10.60;41.88
69219;BME280;56232;53.384;-2.732;2022-10-15T00:07:53;99849.87;;;11.04;41.79
69219;BME280;56232;53.384;-2.732;2022-10-15T00:10:18;99853.49;;;10.50;41.70
69219;BME280;56232;53.384;-2.732;2022-10-15T00:12:44;99851.97;;;11.08;41.47
69219;BME280;56232;53.384;-2.732;2022-10-15T00:15:10;99852.06;;;10.55;40.83
69219;BME280;56232;53.384;-2.732;2022-10-15T00:17:35;99856.31;;;9.98;40.90
69219;BME280;56232;53.384;-2.732;2022-10-15T00:20:01;99848.09;;;10.43;40.72
69219;BME280;56232;53.384;-2.732;2022-10-15T00:22:26;99833.51;;;10.44;41.02
69219;BME280;56232;53.384;-2.732;2022-10-15T00:24:52;99825.07;;;10.26;41.51
69219;BME280;56232;53.384;-2.732;2022-10-15T00:27:17;99820.86;;;10.42;41.76
69219;BME280;56232;53.384;-2.732;2022-10-15T00:29:43;99813.74;;;10.24;41.98
69219;BME280;56232;53.384;-2.732;2022-10-15T00:32:09;99810.86;;;9.99;42.19
69219;BME280;56232;53.384;-2.732;2022-10-15T00:34:34;99806.55;;;10.33;42.56
69219;BME280;56232;53.384;-2.732;2022-10-15T00:37:00;99804.66;;;9.35;43.05
69219;BME280;56232;53.384;-2.732;2022-10-15T00:39:26;99792.60;;;9.82;42.86
69219;BME280;56232;53.384;-2.732;2022-10-15T00:41:51;99792.83;;;9.62;43.56
69219;BME280;56232;53.384;-2.732;2022-10-15T00:46:42;99789.40;;;10.02;43.93
69219;BME280;56232;53.384;-2.732;2022-10-15T00:49:19;99788.98;;;9.79;43.74
69219;BME280;56232;53.384;-2.732;2022-10-15T00:51:38;99784.89;;;9.93;43.48
69219;BME280;56232;53.384;-2.732;2022-10-15T00:53:59;99780.04;;;9.48;43.40
69219;BME280;56232;53.384;-2.732;2022-10-15T00:56:26;99775.97;;;10.23;43.45
69219;BME280;56232;53.384;-2.732;2022-10-15T00:58:50;99768.24;;;10.03;43.65
69219;BME280;56232;53.384;-2.732;2022-10-15T01:01:15;99760.48;;;9.87;43.24
69219;BME280;56232;53.384;-2.732;2022-10-15T01:03:41;99753.29;;;9.52;44.25
69219;BME280;56232;53.384;-2.732;2022-10-15T01:06:06;99745.76;;;9.35;44.54
69219;BME280;56232;53.384;-2.732;2022-10-15T01:08:33;99748.65;;;9.25;44.08
69219;BME280;56232;53.384;-2.732;2022-10-15T01:11:06;99742.59;;;9.08;44.94
69219;BME280;56232;53.384;-2.732;2022-10-15T01:13:31;99742.85;;;9.41;45.25
69219;BME280;56232;53.384;-2.732;2022-10-15T01:15:54;99738.71;;;9.31;44.84
69219;BME280;56232;53.384;-2.732;2022-10-15T01:18:17;99725.87;;;9.20;45.03
69219;BME280;56232;53.384;-2.732;2022-10-15T01:20:49;99732.71;;;9.68;45.39
69219;BME280;56232;53.384;-2.732;2022-10-15T01:23:21;99730.46;;;8.54;45.89
69219;BME280;56232;53.384;-2.732;2022-10-15T01:25:40;99721.70;;;9.03;45.87
69219;BME280;56232;53.384;-2.732;2022-10-15T01:28:03;99707.58;;;9.06;46.11
69219;BME280;56232;53.384;-2.732;2022-10-15T01:30:24;99702.21;;;9.24;45.54
69219;BME280;56232;53.384;-2.732;2022-10-15T01:32:59;99690.94;;;9.80;45.51
69219;BME280;56232;53.384;-2.732;2022-10-15T01:35:21;99679.33;;;8.71;45.46
69219;BME280;56232;53.384;-2.732;2022-10-15T01:37:44;99676.90;;;8.60;46.39
69219;BME280;56232;53.384;-2.732;2022-10-15T01:40:08;99674.62;;;9.58;46.07
69219;BME280;56232;53.384;-2.732;2022-10-15T01:42:33;99670.10;;;9.50;46.17
69219;BME280;56232;53.384;-2.732;2022-10-15T01:45:01;99664.06;;;9.62;46.27
69219;BME280;56232;53.384;-2.732;2022-10-15T01:47:26;99657.68;;;9.70;46.36
69219;BME280;56232;53.384;-2.732;2022-10-15T01:49:48;99646.88;;;8.73;45.65
69219;BME280;56232;53.384;-2.732;2022-10-15T01:52:16;99639.31;;;8.68;46.22
69219;BME280;56232;53.384;-2.732;2022-10-15T01:54:39;99637.73;;;9.64;46.76
69219;BME280;56232;53.384;-2.732;2022-10-15T01:57:05;99639.83;;;9.68;45.29
69219;BME280;56232;53.384;-2.732;2022-10-15T01:59:32;99647.95;;;8.61;45.07
69219;BME280;56232;53.384;-2.732;2022-10-15T02:01:56;99649.72;;;9.12;46.02
69219;BME280;56232;53.384;-2.732;2022-10-15T02:04:23;99649.87;;;9.78;46.20
69219;BME280;56232;53.384;-2.732;2022-10-15T02:06:51;99648.80;;;8.71;46.33
69219;BME280;56232;53.384;-2.732;2022-10-15T02:09:18;99650.89;;;9.42;45.49
69219;BME280;56232;53.384;-2.732;2022-10-15T02:11:47;99636.83;;;9.51;45.31
69219;BME280;56232;53.384;-2.732;2022-10-15T02:14:08;99630.03;;;9.59;46.40
69219;BME280;56232;53.384;-2.732;2022-10-15T02:16:36;99629.57;;;9.67;46.18
69219;BME280;56232;53.384;-2.732;2022-10-15T02:19:01;99625.34;;;9.18;46.67
69219;BME280;56232;53.384;-2.732;2022-10-15T02:21:27;99619.95;;;8.68;46.37
69219;BME280;56232;53.384;-2.732;2022-10-15T02:23:53;99612.22;;;9.46;46.81
69219;BME280;56232;53.384;-2.732;2022-10-15T02:26:13;99616.70;;;9.64;46.70
69219;BME280;56232;53.384;-2.732;2022-10-15T02:28:41;99608.46;;;9.72;46.06
69219;BME280;56232;53.384;-2.732;2022-10-15T02:31:04;99604.39;;;9.78;46.42
69219;BME280;56232;53.384;-2.732;2022-10-15T02:33:31;99598.15;;;9.82;46.14
69219;BME280;56232;53.384;-2.732;2022-10-15T02:35:57;99589.62;;;9.24;46.75
69219;BME280;56232;53.384;-2.732;2022-10-15T02:38:24;99586.82;;;9.35;46.45
69219;BME280;56232;53.384;-2.732;2022-10-15T02:40:47;99583.69;;;8.87;46.46
69219;BME280;56232;53.384;-2.732;2022-10-15T02:43:13;99581.85;;;10.14;46.18
69219;BME280;56232;53.384;-2.732;2022-10-15T02:45:38;99582.89;;;10.29;46.32
69219;BME280;56232;53.384;-2.732;2022-10-15T02:48:04;99580.21;;;9.93;46.51
69219;BME280;56232;53.384;-2.732;2022-10-15T02:50:29;99582.24;;;10.86;46.48
69219;BME280;56232;53.384;-2.732;2022-10-15T02:52:55;99580.36;;;9.95;46.40
69219;BME280;56232;53.384;-2.732;2022-10-15T02:55:20;99568.60;;;10.23;46.33
69219;BME280;56232;53.384;-2.732;2022-10-15T02:57:46;99560.58;;;10.83;46.67
69219;BME280;56232;53.384;-2.732;2022-10-15T03:00:13;99560.30;;;10.51;46.75
69219;BME280;56232;53.384;-2.732;2022-10-15T03:02:38;99561.06;;;11.10;46.23
69219;BME280;56232;53.384;-2.732;2022-10-15T03:05:04;99557.47;;;11.19;46.14
69219;BME280;56232;53.384;-2.732;2022-10-15T03:07:29;99552.14;;;10.68;46.15
69219;BME280;56232;53.384;-2.732;2022-10-15T03:09:54;99542.69;;;10.85;46.44
69219;BME280;56232;53.384;-2.732;2022-10-15T03:12:20;99536.34;;;11.10;46.16
69219;BME280;56232;53.384;-2.732;2022-10-15T03:14:46;99524.54;;;11.11;44.79
69219;BME280;56232;53.384;-2.732;2022-10-15T03:17:11;99517.23;;;10.63;44.84
69219;BME280;56232;53.384;-2.732;2022-10-15T03:19:37;99514.38;;;10.93;43.95
69219;BME280;56232;53.384;-2.732;2022-10-15T03:22:02;99510.07;;;10.77;44.16
69219;BME280;56232;53.384;-2.732;2022-10-15T03:24:28;99503.28;;;10.84;42.88
69219;BME280;56232;53.384;-2.732;2022-10-15T03:26:54;99503.12;;;11.24;43.87
69219;BME280;56232;53.384;-2.732;2022-10-15T03:29:19;99503.90;;;10.76;43.30
69219;BME280;56232;53.384;-2.732;2022-10-15T03:31:45;99502.09;;;10.67;44.04
69219;BME280;56232;53.384;-2.732;2022-10-15T03:34:11;99498.11;;;10.60;43.80
69219;BME280;56232;53.384;-2.732;2022-10-15T03:36:36;99494.20;;;11.17;44.72
69219;BME280;56232;53.384;-2.732;2022-10-15T03:39:02;99484.61;;;11.12;43.07
69219;BME280;56232;53.384;-2.732;2022-10-15T03:41:27;99478.36;;;10.98;42.77
69219;BME280;56232;53.384;-2.732;2022-10-15T03:43:53;99476.34;;;10.85;44.06
69219;BME280;56232;53.384;-2.732;2022-10-15T03:46:19;99472.67;;;10.31;43.15
69219;BME280;56232;53.384;-2.732;2022-10-15T03:48:47;99465.23;;;10.57;43.07
69219;BME280;56232;53.384;-2.732;2022-10-15T03:51:10;99459.52;;;9.92;43.12
69219;BME280;56232;53.384;-2.732;2022-10-15T03:53:36;99455.16;;;10.29;43.59
69219;BME280;56232;53.384;-2.732;2022-10-15T03:56:03;99453.55;;;10.70;43.56
69219;BME280;56232;53.384;-2.732;2022-10-15T03:58:27;99451.09;;;9.85;43.91
69219;BME280;56232;53.384;-2.732;2022-10-15T04:00:53;99446.23;;;11.32;43.58
69219;BME280;56232;53.384;-2.732;2022-10-15T04:03:18;99446.03;;;9.92;43.99
69219;BME280;56232;53.384;-2.732;2022-10-15T04:05:49;99444.27;;;9.79;44.19
69219;BME280;56232;53.384;-2.732;2022-10-15T04:08:10;99437.87;;;9.61;44.23
69219;BME280;56232;53.384;-2.732;2022-10-15T04:10:35;99433.51;;;9.49;44.06
69219;BME280;56232;53.384;-2.732;2022-10-15T04:13:01;99430.32;;;9.45;44.31
69219;BME280;56232;53.384;-2.732;2022-10-15T04:15:27;99420.14;;;9.34;44.07
69219;BME280;56232;53.384;-2.732;2022-10-15T04:17:53;99413.06;;;8.61;44.31
69219;BME280;56232;53.384;-2.732;2022-10-15T04:20:18;99407.70;;;9.15;44.26
69219;BME280;56232;53.384;-2.732;2022-10-15T04:22:44;99408.76;;;9.02;44.71
69219;BME280;56232;53.384;-2.732;2022-10-15T04:25:10;99399.55;;;8.98;44.22
69219;BME280;56232;53.384;-2.732;2022-10-15T04:27:35;99394.57;;;8.91;44.28
69219;BME280;56232;53.384;-2.732;2022-10-15T04:30:01;99393.04;;;10.03;44.45
69219;BME280;56232;53.384;-2.732;2022-10-15T04:32:27;99386.11;;;10.00;44.07
69219;BME280;56232;53.384;-2.732;2022-10-15T04:34:52;99385.67;;;9.92;44.07
69219;BME280;56232;53.384;-2.732;2022-10-15T04:37:18;99386.78;;;9.28;44.61
69219;BME280;56232;53.384;-2.732;2022-10-15T04:39:43;99387.85;;;8.73;44.37
69219;BME280;56232;53.384;-2.732;2022-10-15T04:42:09;99387.48;;;8.68;44.06
69219;BME280;56232;53.384;-2.732;2022-10-15T04:44:35;99388.17;;;9.21;44.60
69219;BME280;56232;53.384;-2.732;2022-10-15T04:47:00;99378.21;;;8.72;43.96
69219;BME280;56232;53.384;-2.732;2022-10-15T04:49:26;99373.77;;;8.66;43.33
69219;BME280;56232;53.384;-2.732;2022-10-15T04:51:51;99369.49;;;9.13;43.94
69219;BME280;56232;53.384;-2.732;2022-10-15T04:54:17;99363.57;;;9.74;43.56
69219;BME280;56232;53.384;-2.732;2022-10-15T04:56:43;99361.57;;;9.08;44.44
69219;BME280;56232;53.384;-2.732;2022-10-15T04:59:09;99361.37;;;9.03;44.50
69219;BME280;56232;53.384;-2.732;2022-10-15T05:01:34;99360.95;;;9.10;43.74
69219;BME280;56232;53.384;-2.732;2022-10-15T05:04:00;99360.18;;;9.65;43.96
69219;BME280;56232;53.384;-2.732;2022-10-15T05:06:26;99359.09;;;9.07;44.05
69219;BME280;56232;53.384;-2.732;2022-10-15T05:08:51;99363.25;;;8.59;44.32
69219;BME280;56232;53.384;-2.732;2022-10-15T05:11:18;99362.11;;;8.71;43.89
69219;BME280;56232;53.384;-2.732;2022-10-15T05:13:43;99355.02;;;9.32;43.40
69219;BME280;56232;53.384;-2.732;2022-10-15T05:16:11;99360.24;;;10.06;44.26
69219;BME280;56232;53.384;-2.732;2022-10-15T05:18:34;99357.22;;;9.66;44.06
69219;BME280;56232;53.384;-2.732;2022-10-15T05:21:00;99354.66;;;9.39;43.97
69219;BME280;56232;53.384;-2.732;2022-10-15T05:23:25;99338.36;;;10.67;43.80
69219;BME280;56232;53.384;-2.732;2022-10-15T05:25:51;99325.60;;;9.70;43.91
69219;BME280;56232;53.384;-2.732;2022-10-15T05:28:16;99317.14;;;9.78;43.28
69219;BME280;56232;53.384;-2.732;2022-10-15T05:30:42;99318.14;;;9.17;43.29
69219;BME280;56232;53.384;-2.732;2022-10-15T05:33:07;99311.40;;;9.84;43.66
69219;BME280;56232;53.384;-2.732;2022-10-15T05:35:33;99308.19;;;9.89;43.69
69219;BME280;56232;53.384;-2.732;2022-10-15T05:37:59;99311.69;;;9.90;43.09
69219;BME280;56232;53.384;-2.732;2022-10-15T05:40:24;99319.83;;;9.98;42.81
69219;BME280;56232;53.384;-2.732;2022-10-15T05:42:50;99324.08;;;10.03;42.64
69219;BME280;56232;53.384;-2.732;2022-10-15T05:45:15;99328.89;;;10.11;43.10
69219;BME280;56232;53.384;-2.732;2022-10-15T05:47:41;99330.81;;;10.27;43.14
69219;BME280;56232;53.384;-2.732;2022-10-15T05:50:07;99341.72;;;10.80;42.15
69219;BME280;56232;53.384;-2.732;2022-10-15T05:52:33;99338.78;;;10.22;42.32
69219;BME280;56232;53.384;-2.732;2022-10-15T05:54:58;99334.96;;;10.35;42.90
69219;BME280;56232;53.384;-2.732;2022-10-15T05:57:23;99350.33;;;10.50;42.03
69219;BME280;56232;53.384;-2.732;2022-10-15T05:59:49;99354.23;;;9.92;42.55
69219;BME280;56232;53.384;-2.732;2022-10-15T06:02:15;99358.03;;;10.54;42.09
69219;BME280;56232;53.384;-2.732;2022-10-15T06:04:41;99356.89;;;10.43;42.04
69219;BME280;56232;53.384;-2.732;2022-10-15T06:07:06;99368.29;;;9.74;42.04
69219;BME280;56232;53.384;-2.732;2022-10-15T06:09:33;99371.40;;;10.18;41.97
69219;BME280;56232;53.384;-2.732;2022-10-15T06:11:57;99378.69;;;8.95;42.01
69219;BME280;56232;53.384;-2.732;2022-10-15T06:14:23;99380.93;;;9.90;42.56
69219;BME280;56232;53.384;-2.732;2022-10-15T06:16:49;99371.07;;;9.79;42.78
69219;BME280;56232;53.384;-2.732;2022-10-15T06:19:14;99366.26;;;9.72;42.70
69219;BME280;56232;53.384;-2.732;2022-10-15T06:21:40;99358.52;;;10.65;43.04
69219;BME280;56232;53.384;-2.732;2022-10-15T06:24:06;99334.77;;;9.92;42.72
69219;BME280;56232;53.384;-2.732;2022-10-15T06:26:36;99279.72;;;9.24;43.14
69219;BME280;56232;53.384;-2.732;2022-10-15T06:28:57;99266.38;;;9.14;43.27
69219;BME280;56232;53.384;-2.732;2022-10-15T06:31:23;99267.97;;;9.17;43.43
69219;BME280;56232;53.384;-2.732;2022-10-15T06:33:48;99315.96;;;9.30;43.51
69219;BME280;56232;53.384;-2.732;2022-10-15T06:36:14;99297.91;;;9.40;43.54
69219;BME280;56232;53.384;-2.732;2022-10-15T06:38:40;99318.22;;;9.63;43.30
69219;BME280;56232;53.384;-2.732;2022-10-15T06:41:06;99304.09;;;9.08;42.54
69219;BME280;56232;53.384;-2.732;2022-10-15T06:43:33;99311.35;;;9.66;42.35
69219;BME280;56232;53.384;-2.732;2022-10-15T06:45:58;99282.71;;;9.60;42.70
69219;BME280;56232;53.384;-2.732;2022-10-15T06:48:22;99269.24;;;9.60;42.98
69219;BME280;56232;53.384;-2.732;2022-10-15T06:50:48;99288.62;;;10.04;42.43
69219;BME280;56232;53.384;-2.732;2022-10-15T06:53:14;99298.51;;;9.32;42.64
69219;BME280;56232;53.384;-2.732;2022-10-15T06:55:39;99291.36;;;9.27;42.68
69219;BME280;56232;53.384;-2.732;2022-10-15T06:58:05;99304.13;;;9.67;42.55
69219;BME280;56232;53.384;-2.732;2022-10-15T07:00:32;99305.77;;;9.61;42.48
69219;BME280;56232;53.384;-2.732;2022-10-15T07:03:02;99306.47;;;9.98;42.80
69219;BME280;56232;53.384;-2.732;2022-10-15T07:05:22;99314.03;;;9.32;42.55
69219;BME280;56232;53.384;-2.732;2022-10-15T07:07:51;99315.22;;;8.70;42.57
69219;BME280;56232;53.384;-2.732;2022-10-15T07:10:13;99313.07;;;9.17;42.68
69219;BME280;56232;53.384;-2.732;2022-10-15T07:12:39;99317.95;;;9.77;42.68
69219;BME280;56232;53.384;-2.732;2022-10-15T07:15:05;99325.56;;;9.72;42.83
69219;BME280;56232;53.384;-2.732;2022-10-15T07:17:31;99328.67;;;9.64;42.59
69219;BME280;56232;53.384;-2.732;2022-10-15T07:19:56;99330.77;;;9.49;42.72
69219;BME280;56232;53.384;-2.732;2022-10-15T07:22:22;99329.24;;;8.50;42.56
69219;BME280;56232;53.384;-2.732;2022-10-15T07:24:47;99340.28;;;9.69;42.28
69219;BME280;56232;53.384;-2.732;2022-10-15T07:27:13;99341.18;;;9.48;42.38
69219;BME280;56232;53.384;-2.732;2022-10-15T07:29:39;99341.01;;;9.44;42.33
69219;BME280;56232;53.384;-2.732;2022-10-15T07:32:04;99337.15;;;9.40;42.41
69219;BME280;56232;53.384;-2.732;2022-10-15T07:34:31;99340.84;;;9.44;42.40
69219;BME280;56232;53.384;-2.732;2022-10-15T07:36:56;99339.93;;;8.83;42.17
69219;BME280;56232;53.384;-2.732;2022-10-15T07:39:21;99342.29;;;8.75;42.55
69219;BME280;56232;53.384;-2.732;2022-10-15T07:41:47;99344.24;;;9.53;42.32
69219;BME280;56232;53.384;-2.732;2022-10-15T07:44:13;99348.19;;;9.69;42.02
69219;BME280;56232;53.384;-2.732;2022-10-15T07:46:39;99357.17;;;9.19;42.31
69219;BME280;56232;53.384;-2.732;2022-10-15T07:49:04;99359.94;;;9.37;41.98
69219;BME280;56232;53.384;-2.732;2022-10-15T07:51:30;99368.16;;;9.08;41.91
69219;BME280;56232;53.384;-2.732;2022-10-15T07:53:55;99369.86;;;9.82;41.79
69219;BME280;56232;53.384;-2.732;2022-10-15T07:56:21;99378.15;;;10.03;41.71
69219;BME280;56232;53.384;-2.732;2022-10-15T07:58:47;99378.44;;;9.74;41.44
69219;BME280;56232;53.384;-2.732;2022-10-15T08:01:12;99377.84;;;10.85;40.86
69219;BME280;56232;53.384;-2.732;2022-10-15T08:03:38;99385.63;;;11.02;40.39
69219;BME280;56232;53.384;-2.732;2022-10-15T08:06:05;99389.10;;;11.54;40.53
69219;BME280;56232;53.384;-2.732;2022-10-15T08:08:30;99391.98;;;11.84;39.65
69219;BME280;56232;53.384;-2.732;2022-10-15T08:10:55;99396.71;;;11.99;39.52
69219;BME280;56232;53.384;-2.732;2022-10-15T08:13:25;99398.74;;;11.60;39.52
69219;BME280;56232;53.384;-2.732;2022-10-15T08:15:46;99396.27;;;11.22;39.19
69219;BME280;56232;53.384;-2.732;2022-10-15T08:18:12;99395.13;;;12.46;38.95
69219;BME280;56232;53.384;-2.732;2022-10-15T08:20:38;99392.90;;;11.42;38.84
69219;BME280;56232;53.384;-2.732;2022-10-15T08:23:04;99388.97;;;12.28;39.04
69219;BME280;56232;53.384;-2.732;2022-10-15T08:25:29;99396.57;;;10.89;39.21
69219;BME280;56232;53.384;-2.732;2022-10-15T08:27:54;99395.51;;;11.88;39.78
69219;BME280;56232;53.384;-2.732;2022-10-15T08:30:20;99394.80;;;12.44;38.83
69219;BME280;56232;53.384;-2.732;2022-10-15T08:32:46;99399.45;;;13.99;37.07
69219;BME280;56232;53.384;-2.732;2022-10-15T08:35:11;99394.38;;;15.25;35.85
69219;BME280;56232;53.384;-2.732;2022-10-15T08:37:37;99399.11;;;16.91;34.14
69219;BME280;56232;53.384;-2.732;2022-10-15T08:40:03;99404.35;;;18.25;32.53
69219;BME280;56232;53.384;-2.732;2022-10-15T08:42:32;99407.35;;;19.39;29.63
69219;BME280;56232;53.384;-2.732;2022-10-15T08:44:57;99413.29;;;19.63;28.98
69219;BME280;56232;53.384;-2.732;2022-10-15T08:47:26;99421.19;;;18.68;29.22
69219;BME280;56232;53.384;-2.732;2022-10-15T08:49:48;99419.71;;;17.75;29.80
69219;BME280;56232;53.384;-2.732;2022-10-15T08:52:16;99430.32;;;16.53;31.18
69219;BME280;56232;53.384;-2.732;2022-10-15T08:54:36;99432.43;;;16.86;31.59
69219;BME280;56232;53.384;-2.732;2022-10-15T08:57:15;99436.44;;;17.83;30.94
69219;BME280;56232;53.384;-2.732;2022-10-15T08:59:34;99442.73;;;18.44;29.95
69219;BME280;56232;53.384;-2.732;2022-10-15T09:01:57;99452.23;;;18.59;29.53
69219;BME280;56232;53.384;-2.732;2022-10-15T09:04:24;99456.37;;;20.24;28.93
69219;BME280;56232;53.384;-2.732;2022-10-15T09:06:45;99462.21;;;19.41;28.50
69219;BME280;56232;53.384;-2.732;2022-10-15T09:09:16;99458.31;;;19.76;27.55
69219;BME280;56232;53.384;-2.732;2022-10-15T09:11:44;99464.89;;;19.71;27.43
69219;BME280;56232;53.384;-2.732;2022-10-15T09:14:02;99462.72;;;21.00;27.29
69219;BME280;56232;53.384;-2.732;2022-10-15T09:16:28;99471.34;;;20.74;26.75
69219;BME280;56232;53.384;-2.732;2022-10-15T09:18:52;99472.05;;;20.36;25.98
69219;BME280;56232;53.384;-2.732;2022-10-15T09:21:18;99479.26;;;21.15;26.08
69219;BME280;56232;53.384;-2.732;2022-10-15T09:23:43;99482.65;;;21.28;25.51
69219;BME280;56232;53.384;-2.732;2022-10-15T09:26:19;99481.03;;;21.57;25.94
69219;BME280;56232;53.384;-2.732;2022-10-15T09:28:38;99485.35;;;21.04;25.70
69219;BME280;56232;53.384;-2.732;2022-10-15T09:31:00;99487.05;;;20.99;26.12
69219;BME280;56232;53.384;-2.732;2022-10-15T09:33:34;99491.83;;;21.49;26.27
69219;BME280;56232;53.384;-2.732;2022-10-15T09:35:53;99496.84;;;21.03;25.67
69219;BME280;56232;53.384;-2.732;2022-10-15T09:38:26;99498.27;;;20.67;25.87
69219;BME280;56232;53.384;-2.732;2022-10-15T09:40:51;99505.16;;;21.37;26.02
69219;BME280;56232;53.384;-2.732;2022-10-15T09:43:09;99508.49;;;20.67;25.59
69219;BME280;56232;53.384;-2.732;2022-10-15T09:45:34;99513.61;;;20.95;25.99
69219;BME280;56232;53.384;-2.732;2022-10-15T09:47:59;99516.36;;;20.47;26.22
69219;BME280;56232;53.384;-2.732;2022-10-15T09:50:27;99517.32;;;19.78;26.61
69219;BME280;56232;53.384;-2.732;2022-10-15T09:53:01;99519.45;;;19.63;26.63
69219;BME280;56232;53.384;-2.732;2022-10-15T09:55:26;99522.50;;;19.09;27.71
69219;BME280;56232;53.384;-2.732;2022-10-15T09:57:45;99532.77;;;17.45;29.66
69219;BME280;56232;53.384;-2.732;2022-10-15T10:00:09;99536.42;;;16.59;30.65
69219;BME280;56232;53.384;-2.732;2022-10-15T10:02:33;99534.38;;;17.12;32.49
69219;BME280;56232;53.384;-2.732;2022-10-15T10:07:29;99547.32;;;14.66;33.90
69219;BME280;56232;53.384;-2.732;2022-10-15T10:09:53;99543.46;;;14.40;34.31
69219;BME280;56232;53.384;-2.732;2022-10-15T10:12:18;99541.75;;;14.20;34.86
69219;BME280;56232;53.384;-2.732;2022-10-15T10:14:45;99546.17;;;15.04;35.73
69219;BME280;56232;53.384;-2.732;2022-10-15T10:17:13;99539.98;;;14.24;35.07
69219;BME280;56232;53.384;-2.732;2022-10-15T10:19:32;99541.20;;;14.29;34.79
69219;BME280;56232;53.384;-2.732;2022-10-15T10:22:10;99539.50;;;13.82;35.70
69219;BME280;56232;53.384;-2.732;2022-10-15T10:24:26;99542.26;;;15.06;36.40
69219;BME280;56232;53.384;-2.732;2022-10-15T10:26:48;99541.92;;;13.76;35.68
69219;BME280;56232;53.384;-2.732;2022-10-15T10:29:18;99540.35;;;14.19;35.48
69219;BME280;56232;53.384;-2.732;2022-10-15T10:31:39;99540.58;;;14.54;36.66
69219;BME280;56232;53.384;-2.732;2022-10-15T10:34:05;99538.65;;;13.68;36.53
69219;BME280;56232;53.384;-2.732;2022-10-15T10:36:33;99533.86;;;13.24;36.53
69219;BME280;56232;53.384;-2.732;2022-10-15T10:39:01;99534.11;;;14.43;36.66
69219;BME280;56232;53.384;-2.732;2022-10-15T10:41:22;99532.82;;;13.80;36.53
69219;BME280;56232;53.384;-2.732;2022-10-15T10:43:52;99526.53;;;13.50;35.91
69219;BME280;56232;53.384;-2.732;2022-10-15T10:46:17;99521.43;;;13.79;36.29
69219;BME280;56232;53.384;-2.732;2022-10-15T10:48:42;99522.06;;;14.36;36.16
69219;BME280;56232;53.384;-2.732;2022-10-15T10:51:08;99530.23;;;14.96;35.71
69219;BME280;56232;53.384;-2.732;2022-10-15T10:53:34;99526.52;;;15.60;35.39
69219;BME280;56232;53.384;-2.732;2022-10-15T10:55:56;99525.72;;;15.60;34.81
69219;BME280;56232;53.384;-2.732;2022-10-15T10:58:22;99510.94;;;16.08;34.74
69219;BME280;56232;53.384;-2.732;2022-10-15T11:00:48;99512.02;;;15.93;34.26
69219;BME280;56232;53.384;-2.732;2022-10-15T11:03:21;99507.90;;;15.58;32.57
69219;BME280;56232;53.384;-2.732;2022-10-15T11:05:39;99514.14;;;15.62;34.38
69219;BME280;56232;53.384;-2.732;2022-10-15T11:08:09;99512.30;;;15.37;35.29
69219;BME280;56232;53.384;-2.732;2022-10-15T11:10:33;99516.16;;;14.93;35.33
69219;BME280;56232;53.384;-2.732;2022-10-15T11:13:05;99502.00;;;15.68;34.79
69219;BME280;56232;53.384;-2.732;2022-10-15T11:15:29;99497.60;;;15.99;34.22
69219;BME280;56232;53.384;-2.732;2022-10-15T11:17:51;99497.68;;;16.07;34.56
69219;BME280;56232;53.384;-2.732;2022-10-15T11:20:17;99500.92;;;15.68;34.74
69219;BME280;56232;53.384;-2.732;2022-10-15T11:22:46;99502.49;;;16.42;35.16
69219;BME280;56232;53.384;-2.732;2022-10-15T11:25:10;99505.89;;;16.23;34.21
69219;BME280;56232;53.384;-2.732;2022-10-15T11:27:41;99519.56;;;16.30;34.38
69219;BME280;56232;53.384;-2.732;2022-10-15T11:29:57;99520.19;;;16.23;34.77
69219;BME280;56232;53.384;-2.732;2022-10-15T11:32:30;99523.65;;;16.10;33.37
69219;BME280;56232;53.384;-2.732;2022-10-15T11:34:59;99523.18;;;16.52;34.64
69219;BME280;56232;53.384;-2.732;2022-10-15T11:37:23;99520.11;;;16.11;33.55
69219;BME280;56232;53.384;-2.732;2022-10-15T11:39:48;99517.57;;;16.70;33.80
69219;BME280;56232;53.384;-2.732;2022-10-15T11:42:09;99511.50;;;15.79;35.06
69219;BME280;56232;53.384;-2.732;2022-10-15T11:44:37;99518.55;;;15.08;34.72
69219;BME280;56232;53.384;-2.732;2022-10-15T11:47:04;99519.36;;;15.62;35.48
69219;BME280;56232;53.384;-2.732;2022-10-15T11:49:28;99519.98;;;16.18;34.93
69219;BME280;56232;53.384;-2.732;2022-10-15T11:51:58;99523.43;;;15.06;34.87
69219;BME280;56232;53.384;-2.732;2022-10-15T11:54:19;99526.05;;;15.39;35.84
69219;BME280;56232;53.384;-2.732;2022-10-15T11:56:40;99542.93;;;14.35;36.42
69219;BME280;56232;53.384;-2.732;2022-10-15T11:59:11;99545.22;;;14.46;37.10
69219;BME280;56232;53.384;-2.732;2022-10-15T12:01:33;99543.66;;;13.89;38.24
69219;BME280;56232;53.384;-2.732;2022-10-15T12:03:55;99547.51;;;12.57;38.77
69219;BME280;56232;53.384;-2.732;2022-10-15T12:06:20;99552.51;;;11.30;39.21
69219;BME280;56232;53.384;-2.732;2022-10-15T12:08:45;99548.03;;;12.39;39.06
69219;BME280;56232;53.384;-2.732;2022-10-15T12:11:17;99543.97;;;12.58;40.06
69219;BME280;56232;53.384;-2.732;2022-10-15T12:13:39;99534.39;;;11.08;39.20
69219;BME280;56232;53.384;-2.732;2022-10-15T12:16:11;99531.83;;;12.00;40.03
69219;BME280;56232;53.384;-2.732;2022-10-15T12:18:32;99518.01;;;11.72;40.17
69219;BME280;56232;53.384;-2.732;2022-10-15T12:20:52;99515.44;;;11.58;40.25
69219;BME280;56232;53.384;-2.732;2022-10-15T12:23:23;99507.34;;;10.58;40.54
69219;BME280;56232;53.384;-2.732;2022-10-15T12:25:44;99498.79;;;11.76;40.32
69219;BME280;56232;53.384;-2.732;2022-10-15T12:28:16;99508.72;;;11.77;39.22
69219;BME280;56232;53.384;-2.732;2022-10-15T12:30:35;99500.04;;;11.77;39.77
69219;BME280;56232;53.384;-2.732;2022-10-15T12:33:01;99491.34;;;11.89;40.01
69219;BME280;56232;53.384;-2.732;2022-10-15T12:35:34;99486.85;;;10.96;38.98
69219;BME280;56232;53.384;-2.732;2022-10-15T12:37:51;99495.28;;;11.66;39.25
69219;BME280;56232;53.384;-2.732;2022-10-15T12:40:25;99491.35;;;11.62;39.28
69219;BME280;56232;53.384;-2.732;2022-10-15T12:42:42;99490.85;;;11.80;39.02
69219;BME280;56232;53.384;-2.732;2022-10-15T12:45:19;99497.07;;;12.61;38.43
69219;BME280;56232;53.384;-2.732;2022-10-15T12:50:02;99479.56;;;12.83;37.45
69219;BME280;56232;53.384;-2.732;2022-10-15T12:54:51;99462.61;;;13.78;36.91